Malabrigo, Argentina
Current Conditions -  °F | °C
As of 2:00 PM on Sunday 21 Dec 2014 (Local Time) from SARE Reporting Station
Broken Clouds Broken Clouds  
Wind Chill: 79°   Ceiling: 1800
Heat Index: 81°   Visibility: 6mi
Dew Point: 70°   Wind: 5mph
Humidity: 74%   Direction: 200°SSW
Pressure: 29.68"   Gusts: NA
Location:  29.35°S, 59.98°W
Report Text: SARE 211700Z 20004KT 9999 SCT010 BKN018 BKN100 26/21 Q1005
Loading
Personal Weather Stations






























Interactive Weather Map New forecast layout! Learn more

10-Day Weather Forecast

Advertisements
Track Severe Weather on mobile